createdAt,value
2022-10-04T00:00:34.990Z,9.78
2022-10-04T00:03:10.558Z,9.76
2022-10-04T00:05:40.485Z,9.73
2022-10-04T00:08:28.243Z,9.71
2022-10-04T00:11:04.987Z,9.68
2022-10-04T00:13:32.185Z,9.68
2022-10-04T00:15:58.758Z,9.67
2022-10-04T00:18:39.105Z,9.64
2022-10-04T00:21:07.566Z,9.64
2022-10-04T00:23:36.714Z,9.65
2022-10-04T00:26:06.331Z,9.66
2022-10-04T00:28:35.753Z,9.67
2022-10-04T00:31:15.834Z,9.65
2022-10-04T00:33:43.853Z,9.67
2022-10-04T00:36:25.242Z,9.69
2022-10-04T00:39:06.926Z,9.71
2022-10-04T00:41:48.873Z,9.76
2022-10-04T00:44:24.255Z,9.82
2022-10-04T00:46:53.063Z,9.85
2022-10-04T00:49:25.725Z,9.89
2022-10-04T00:52:03.286Z,9.90
2022-10-04T00:54:35.184Z,9.91
2022-10-04T00:57:07.454Z,9.92
2022-10-04T00:59:51.469Z,9.93
2022-10-04T01:02:46.433Z,9.95
2022-10-04T01:05:31.056Z,9.96
2022-10-04T01:08:06.913Z,9.99
2022-10-04T01:10:41.812Z,10.00
2022-10-04T01:13:25.532Z,10.02
2022-10-04T01:16:09.888Z,10.02
2022-10-04T01:18:37.064Z,10.02
2022-10-04T01:21:05.679Z,10.03
2022-10-04T01:23:34.742Z,10.02
2022-10-04T01:26:02.945Z,10.01
2022-10-04T01:28:29.503Z,10.00
2022-10-04T01:30:56.037Z,10.02
2022-10-04T01:33:22.552Z,10.02
2022-10-04T01:35:48.993Z,10.02
2022-10-04T01:38:15.496Z,10.03
2022-10-04T01:41:03.460Z,10.01
2022-10-04T01:43:36.273Z,10.03
2022-10-04T01:46:14.614Z,10.06
2022-10-04T01:48:44.742Z,10.09
2022-10-04T01:51:24.865Z,10.11
2022-10-04T01:54:00.041Z,10.13
2022-10-04T01:56:32.248Z,10.16
2022-10-04T01:59:04.525Z,10.18
2022-10-04T02:02:01.911Z,10.18
2022-10-04T02:04:32.768Z,10.17
2022-10-04T02:07:01.623Z,10.16
2022-10-04T02:09:42.543Z,10.16
2022-10-04T02:12:09.995Z,10.16
2022-10-04T02:14:39.151Z,10.18
2022-10-04T02:17:10.487Z,10.18
2022-10-04T02:19:42.820Z,10.20
2022-10-04T02:22:10.842Z,10.17
2022-10-04T02:24:41.921Z,10.16
2022-10-04T02:27:08.487Z,10.17
2022-10-04T02:29:35.318Z,10.14
2022-10-04T02:32:23.606Z,10.14
2022-10-04T02:34:51.115Z,10.09
2022-10-04T02:37:18.332Z,10.09
2022-10-04T02:39:58.433Z,10.10
2022-10-04T02:42:24.745Z,10.11
2022-10-04T02:45:07.449Z,10.14
2022-10-04T02:47:50.094Z,10.18
2022-10-04T02:50:30.719Z,10.19
2022-10-04T02:53:05.036Z,10.19
2022-10-04T02:55:32.331Z,10.20
2022-10-04T02:57:59.691Z,10.20
2022-10-04T03:00:29.405Z,10.20
2022-10-04T03:03:21.744Z,10.22
2022-10-04T03:05:58.626Z,10.24
2022-10-04T03:08:27.907Z,10.27
2022-10-04T03:10:55.692Z,10.24
2022-10-04T03:13:22.581Z,10.23
2022-10-04T03:15:50.235Z,10.23
2022-10-04T03:18:18.484Z,10.25
2022-10-04T03:20:45.730Z,10.27
2022-10-04T03:23:15.004Z,10.29
2022-10-04T03:25:55.286Z,10.32
2022-10-04T03:28:22.832Z,10.29
2022-10-04T03:30:50.383Z,10.31
2022-10-04T03:33:24.265Z,10.35
2022-10-04T03:35:55.090Z,10.40
2022-10-04T03:38:23.620Z,10.38
2022-10-04T03:40:56.176Z,10.36
2022-10-04T03:43:27.281Z,10.36
2022-10-04T03:45:55.374Z,10.33
2022-10-04T03:48:29.569Z,10.33
2022-10-04T03:50:57.579Z,10.30
2022-10-04T03:53:32.816Z,10.27
2022-10-04T03:56:04.088Z,10.25
2022-10-04T03:58:31.819Z,10.24
2022-10-04T04:01:10.089Z,10.24
2022-10-04T04:04:15.365Z,10.24
2022-10-04T04:06:51.311Z,10.24
2022-10-04T04:09:43.160Z,10.21
2022-10-04T04:12:23.564Z,10.20
2022-10-04T04:14:52.395Z,10.20
2022-10-04T04:17:34.899Z,10.16
2022-10-04T04:20:07.563Z,10.12
2022-10-04T04:22:36.191Z,10.11
2022-10-04T04:25:08.247Z,10.04
2022-10-04T04:27:39.822Z,9.95
2022-10-04T04:30:08.191Z,9.91
2022-10-04T04:32:45.881Z,9.89
2022-10-04T04:35:22.959Z,9.85
2022-10-04T04:38:06.104Z,9.81
2022-10-04T04:40:32.810Z,9.81
2022-10-04T04:43:02.750Z,9.84
2022-10-04T04:45:32.426Z,9.87
2022-10-04T04:48:01.243Z,9.90
2022-10-04T04:50:37.400Z,9.84
2022-10-04T04:53:25.028Z,9.84
2022-10-04T04:56:03.893Z,9.90
2022-10-04T04:58:38.687Z,9.90
2022-10-04T05:01:23.196Z,9.89
2022-10-04T05:04:26.774Z,9.89
2022-10-04T05:07:05.415Z,9.90
2022-10-04T05:09:34.774Z,9.92
2022-10-04T05:12:07.775Z,9.91
2022-10-04T05:14:39.792Z,9.94
2022-10-04T05:17:06.593Z,9.90
2022-10-04T05:19:37.374Z,9.89
2022-10-04T05:22:19.009Z,9.87
2022-10-04T05:24:48.407Z,9.86
2022-10-04T05:27:17.977Z,9.86
2022-10-04T05:30:35.640Z,9.84
2022-10-04T05:33:07.184Z,9.83
2022-10-04T05:36:10.176Z,9.82
2022-10-04T05:38:44.135Z,9.76
2022-10-04T05:41:33.836Z,9.76
2022-10-04T05:44:01.796Z,9.71
2022-10-04T05:46:34.025Z,9.73
2022-10-04T05:49:16.715Z,9.70
2022-10-04T05:52:13.294Z,9.66
2022-10-04T05:54:39.747Z,9.64
2022-10-04T05:57:51.107Z,9.58
2022-10-04T06:00:21.805Z,9.52
2022-10-04T06:03:25.438Z,9.51
2022-10-04T06:06:26.487Z,9.50
2022-10-04T06:09:15.271Z,9.51
2022-10-04T06:12:11.609Z,9.51
2022-10-04T06:14:52.753Z,9.50
2022-10-04T06:17:45.125Z,9.50
2022-10-04T06:20:25.462Z,9.52
2022-10-04T06:22:58.763Z,9.54
2022-10-04T06:25:41.940Z,9.55
2022-10-04T06:28:23.846Z,9.60
2022-10-04T06:31:27.514Z,9.64
2022-10-04T06:34:05.804Z,9.69
2022-10-04T06:37:03.501Z,9.74
2022-10-04T06:39:29.816Z,9.74
2022-10-04T06:41:56.154Z,9.76
2022-10-04T06:44:46.256Z,9.85
2022-10-04T06:47:34.613Z,9.89
2022-10-04T06:50:24.074Z,9.81
2022-10-04T06:53:20.578Z,9.83
2022-10-04T06:56:07.068Z,9.71
2022-10-04T06:58:47.065Z,9.72
2022-10-04T07:01:48.751Z,9.67
2022-10-04T07:04:55.806Z,9.65
2022-10-04T07:07:38.559Z,9.71
2022-10-04T07:10:26.420Z,9.75
2022-10-04T07:13:04.990Z,9.76
2022-10-04T07:15:52.267Z,9.77
2022-10-04T07:18:25.597Z,9.85
2022-10-04T07:21:01.024Z,9.89
2022-10-04T07:23:32.114Z,9.91
2022-10-04T07:26:05.599Z,9.95
2022-10-04T07:28:57.920Z,10.01
2022-10-04T07:31:36.834Z,10.05
2022-10-04T07:34:11.949Z,10.09
2022-10-04T07:36:48.984Z,10.14
2022-10-04T07:39:20.996Z,10.13
2022-10-04T07:42:26.451Z,10.07
2022-10-04T07:45:21.380Z,10.09
2022-10-04T07:47:48.298Z,10.16
2022-10-04T07:50:28.938Z,10.25
2022-10-04T07:53:21.100Z,10.27
2022-10-04T07:56:11.323Z,10.32
2022-10-04T07:59:04.053Z,10.40
2022-10-04T08:01:43.427Z,10.36
2022-10-04T08:04:28.347Z,10.42
2022-10-04T08:07:03.633Z,10.42
2022-10-04T08:09:45.662Z,10.55
2022-10-04T08:12:29.878Z,10.53
2022-10-04T08:15:09.679Z,10.68
2022-10-04T08:18:05.169Z,10.80
2022-10-04T08:20:56.892Z,10.91
2022-10-04T08:23:38.565Z,11.03
2022-10-04T08:26:26.150Z,11.15
2022-10-04T08:29:14.678Z,11.35
2022-10-04T08:32:05.519Z,11.44
2022-10-04T08:35:11.442Z,11.49
2022-10-04T08:38:14.698Z,11.43
2022-10-04T08:40:57.053Z,11.47
2022-10-04T08:43:49.538Z,11.53
2022-10-04T08:46:41.054Z,11.60
2022-10-04T08:49:10.649Z,11.64
2022-10-04T08:51:40.009Z,11.64
2022-10-04T08:54:37.897Z,11.63
2022-10-04T08:57:22.977Z,11.65
2022-10-04T09:00:29.006Z,11.61
2022-10-04T09:03:17.437Z,11.65
2022-10-04T09:06:20.316Z,11.58
2022-10-04T09:09:24.143Z,11.60
2022-10-04T09:12:16.155Z,11.63
2022-10-04T09:15:18.699Z,11.70
2022-10-04T09:18:30.562Z,11.80
2022-10-04T09:21:08.263Z,11.89
2022-10-04T09:23:57.440Z,11.99
2022-10-04T09:26:33.137Z,12.08
2022-10-04T09:29:04.938Z,12.14
2022-10-04T09:32:01.639Z,12.19
2022-10-04T09:34:46.784Z,12.32
2022-10-04T09:37:31.764Z,12.37
2022-10-04T09:40:03.966Z,12.46
2022-10-04T09:43:05.540Z,12.47
2022-10-04T09:45:46.327Z,12.62
2022-10-04T09:48:37.486Z,12.71
2022-10-04T09:51:11.880Z,12.90
2022-10-04T09:53:52.840Z,13.08
2022-10-04T09:56:56.823Z,13.33
2022-10-04T09:59:41.521Z,13.68
2022-10-04T10:02:29.113Z,13.90
2022-10-04T10:05:26.954Z,14.25
2022-10-04T10:08:11.932Z,14.50
2022-10-04T10:11:34.792Z,14.86
2022-10-04T10:14:52.323Z,15.18
2022-10-04T10:17:46.209Z,15.45
2022-10-04T10:20:26.986Z,15.70
2022-10-04T10:23:11.792Z,16.05
2022-10-04T10:25:59.063Z,16.16
2022-10-04T10:29:02.254Z,16.38
2022-10-04T10:31:51.211Z,16.54
2022-10-04T10:34:26.975Z,16.59
2022-10-04T10:37:00.378Z,16.84
2022-10-04T10:40:16.819Z,17.08
2022-10-04T10:42:57.644Z,17.42
2022-10-04T10:45:47.905Z,17.70
2022-10-04T10:48:45.833Z,17.78
2022-10-04T10:51:50.235Z,17.76
2022-10-04T10:54:27.120Z,17.58
2022-10-04T10:57:02.230Z,17.38
2022-10-04T11:00:01.416Z,17.39
2022-10-04T11:03:21.811Z,17.74
2022-10-04T11:06:08.677Z,17.90
2022-10-04T11:09:00.103Z,18.12
2022-10-04T11:12:01.251Z,18.43
2022-10-04T11:14:43.627Z,18.43
2022-10-04T11:17:38.901Z,18.61
2022-10-04T11:20:24.766Z,18.82
2022-10-04T11:23:37.888Z,19.11
2022-10-04T11:26:19.837Z,19.24
2022-10-04T11:29:10.181Z,19.31
2022-10-04T11:31:55.152Z,19.48
2022-10-04T11:34:59.730Z,19.71
2022-10-04T11:37:53.876Z,19.85
2022-10-04T11:40:28.986Z,20.13
2022-10-04T11:42:58.517Z,20.13
2022-10-04T11:45:38.165Z,20.26
2022-10-04T11:48:11.305Z,20.45
2022-10-04T11:50:40.948Z,20.62
2022-10-04T11:53:25.816Z,20.77
2022-10-04T11:56:18.082Z,20.79
2022-10-04T11:59:09.069Z,20.97
2022-10-04T12:02:07.556Z,20.87
2022-10-04T12:05:05.962Z,20.94
2022-10-04T12:07:54.475Z,21.09
2022-10-04T12:10:29.576Z,21.04
2022-10-04T12:13:10.870Z,21.21
2022-10-04T12:16:11.640Z,21.19
2022-10-04T12:19:15.389Z,21.32
2022-10-04T12:21:54.472Z,21.51
2022-10-04T12:25:08.021Z,21.81
2022-10-04T12:27:46.408Z,21.74
2022-10-04T12:30:28.163Z,22.06
2022-10-04T12:33:29.546Z,22.19
2022-10-04T12:36:20.706Z,22.03
2022-10-04T12:39:04.077Z,22.13
2022-10-04T12:41:36.183Z,22.32
2022-10-04T12:44:21.064Z,22.59
2022-10-04T12:47:05.486Z,22.65
2022-10-04T12:49:41.893Z,22.72
2022-10-04T12:52:17.834Z,22.67
2022-10-04T12:55:04.124Z,22.77
2022-10-04T12:57:42.692Z,23.05
2022-10-04T13:00:22.814Z,22.86
2022-10-04T13:02:55.359Z,23.03
2022-10-04T13:06:03.806Z,23.21
2022-10-04T13:08:46.891Z,23.34
2022-10-04T13:11:39.697Z,23.53
2022-10-04T13:14:34.097Z,23.79
2022-10-04T13:17:29.719Z,23.65
2022-10-04T13:20:24.382Z,23.74
2022-10-04T13:23:02.605Z,23.77
2022-10-04T13:25:37.802Z,23.64
2022-10-04T13:28:26.683Z,23.90
2022-10-04T13:31:04.831Z,23.90
2022-10-04T13:33:39.219Z,24.14
2022-10-04T13:36:11.525Z,24.32
2022-10-04T13:38:54.725Z,24.30
2022-10-04T13:41:51.023Z,24.37
2022-10-04T13:44:30.109Z,24.28
2022-10-04T13:47:43.582Z,24.34
2022-10-04T13:50:26.746Z,24.32
2022-10-04T13:53:38.100Z,24.49
2022-10-04T13:56:37.449Z,24.32
2022-10-04T13:59:30.849Z,24.32
2022-10-04T14:02:30.024Z,24.38
2022-10-04T14:05:15.928Z,24.47
2022-10-04T14:08:21.371Z,24.43
2022-10-04T14:11:00.794Z,24.51
2022-10-04T14:13:36.405Z,24.64
2022-10-04T14:16:05.521Z,24.79
2022-10-04T14:19:09.778Z,24.66
2022-10-04T14:21:54.046Z,24.70
2022-10-04T14:24:53.701Z,24.93
2022-10-04T14:27:34.226Z,25.10
2022-10-04T14:30:12.443Z,25.07
2022-10-04T14:33:17.752Z,25.01
2022-10-04T14:36:02.546Z,25.24
2022-10-04T14:38:47.345Z,25.33
2022-10-04T14:41:39.032Z,25.35
2022-10-04T14:44:44.221Z,25.38
2022-10-04T14:47:36.276Z,25.33
2022-10-04T14:50:26.756Z,25.21
2022-10-04T14:53:22.324Z,25.44
2022-10-04T14:55:54.169Z,25.34
2022-10-04T14:58:49.100Z,25.42
2022-10-04T15:01:23.089Z,25.21
2022-10-04T15:04:12.810Z,25.22
2022-10-04T15:06:52.825Z,25.21
2022-10-04T15:09:40.082Z,25.37
2022-10-04T15:13:05.464Z,25.30
2022-10-04T15:15:41.061Z,25.36
2022-10-04T15:18:41.371Z,25.45
2022-10-04T15:21:31.437Z,25.34
2022-10-04T15:24:18.751Z,25.48
2022-10-04T15:26:53.373Z,25.39
2022-10-04T15:29:29.154Z,25.41
2022-10-04T15:32:28.218Z,25.30
2022-10-04T15:35:22.788Z,25.15
2022-10-04T15:38:18.252Z,24.77
2022-10-04T15:41:16.026Z,24.28
2022-10-04T15:44:07.319Z,23.98
2022-10-04T15:46:43.055Z,23.81
2022-10-04T15:49:27.838Z,23.62
2022-10-04T15:52:09.657Z,23.41
2022-10-04T15:55:08.602Z,23.22
2022-10-04T15:57:56.534Z,23.05
2022-10-04T16:00:27.481Z,22.82
2022-10-04T16:03:27.553Z,22.64
2022-10-04T16:06:11.623Z,22.48
2022-10-04T16:09:10.796Z,22.32
2022-10-04T16:11:59.019Z,22.13
2022-10-04T16:14:53.914Z,22.00
2022-10-04T16:17:35.520Z,21.99
2022-10-04T16:20:47.108Z,21.91
2022-10-04T16:23:31.805Z,21.81
2022-10-04T16:26:03.297Z,21.81
2022-10-04T16:28:44.923Z,21.71
2022-10-04T16:31:20.626Z,21.59
2022-10-04T16:33:59.417Z,21.44
2022-10-04T16:36:42.425Z,21.29
2022-10-04T16:39:30.081Z,21.14
2022-10-04T16:42:06.491Z,21.01
2022-10-04T16:44:59.095Z,20.85
2022-10-04T16:47:39.566Z,20.70
2022-10-04T16:50:11.351Z,20.52
2022-10-04T16:52:53.609Z,20.27
2022-10-04T16:55:35.365Z,20.01
2022-10-04T16:58:26.769Z,19.70
2022-10-04T17:01:34.015Z,19.43
2022-10-04T17:04:09.553Z,19.13
2022-10-04T17:06:51.491Z,18.87
2022-10-04T17:09:45.833Z,18.70
2022-10-04T17:12:35.383Z,18.48
2022-10-04T17:15:27.559Z,18.32
2022-10-04T17:18:06.421Z,18.13
2022-10-04T17:20:41.815Z,18.02
2022-10-04T17:23:40.127Z,17.85
2022-10-04T17:26:51.281Z,17.73
2022-10-04T17:29:38.917Z,17.61
2022-10-04T17:32:44.252Z,17.50
2022-10-04T17:35:34.890Z,17.34
2022-10-04T17:38:10.812Z,17.21
2022-10-04T17:40:43.098Z,17.09
2022-10-04T17:43:31.967Z,17.00
2022-10-04T17:46:07.375Z,16.86
2022-10-04T17:49:14.208Z,16.77
2022-10-04T17:52:01.825Z,16.66
2022-10-04T17:54:59.597Z,16.55
2022-10-04T17:57:36.844Z,16.45
2022-10-04T18:00:08.376Z,16.33
2022-10-04T18:02:37.950Z,16.28
2022-10-04T18:05:34.477Z,16.15
2022-10-04T18:08:10.665Z,16.02
2022-10-04T18:11:14.956Z,15.94
2022-10-04T18:13:55.486Z,15.84
2022-10-04T18:16:27.603Z,15.78
2022-10-04T18:18:54.132Z,15.72
2022-10-04T18:21:22.431Z,15.64
2022-10-04T18:24:19.051Z,15.61
2022-10-04T18:27:00.255Z,15.54
2022-10-04T18:29:41.732Z,15.49
2022-10-04T18:32:26.816Z,15.43
2022-10-04T18:34:59.134Z,15.38
2022-10-04T18:37:33.665Z,15.32
2022-10-04T18:40:33.740Z,15.25
2022-10-04T18:43:01.748Z,15.18
2022-10-04T18:45:30.955Z,15.13
2022-10-04T18:48:00.384Z,15.08
2022-10-04T18:50:37.718Z,15.05
2022-10-04T18:53:44.376Z,15.00
2022-10-04T18:56:12.193Z,14.94
2022-10-04T18:59:34.506Z,14.93
2022-10-04T19:02:04.046Z,14.87
2022-10-04T19:04:54.733Z,14.83
2022-10-04T19:07:35.674Z,14.79
2022-10-04T19:10:27.216Z,14.73
2022-10-04T19:13:47.462Z,14.67
2022-10-04T19:16:24.704Z,14.61
2022-10-04T19:18:57.694Z,14.58
2022-10-04T19:21:49.192Z,14.55
2022-10-04T19:24:33.900Z,14.49
2022-10-04T19:27:06.005Z,14.43
2022-10-04T19:30:14.050Z,14.38
2022-10-04T19:32:57.550Z,14.30
2022-10-04T19:35:33.162Z,14.23
2022-10-04T19:38:20.521Z,14.17
2022-10-04T19:40:58.593Z,14.08
2022-10-04T19:43:42.206Z,14.05
2022-10-04T19:46:35.124Z,13.98
2022-10-04T19:49:02.925Z,13.91
2022-10-04T19:51:45.608Z,13.89
2022-10-04T19:54:17.224Z,13.87
2022-10-04T19:56:49.107Z,13.82
2022-10-04T19:59:30.416Z,13.80
2022-10-04T20:01:57.141Z,13.78
2022-10-04T20:04:35.475Z,13.78
2022-10-04T20:07:24.109Z,13.76
2022-10-04T20:10:13.617Z,13.73
2022-10-04T20:12:41.576Z,13.73
2022-10-04T20:15:28.191Z,13.72
2022-10-04T20:17:55.760Z,13.69
2022-10-04T20:20:40.938Z,13.68
2022-10-04T20:23:08.352Z,13.62
2022-10-04T20:25:43.492Z,13.61
2022-10-04T20:28:32.152Z,13.58
2022-10-04T20:31:02.203Z,13.55
2022-10-04T20:33:34.477Z,13.50
2022-10-04T20:36:12.148Z,13.47
2022-10-04T20:38:45.942Z,13.41
2022-10-04T20:41:49.460Z,13.40
2022-10-04T20:44:42.899Z,13.35
2022-10-04T20:47:31.080Z,13.29
2022-10-04T20:49:59.953Z,13.27
2022-10-04T20:52:30.820Z,13.24
2022-10-04T20:55:00.107Z,13.21
2022-10-04T20:57:26.625Z,13.18
2022-10-04T20:59:55.313Z,13.16
2022-10-04T21:02:24.131Z,13.13
2022-10-04T21:04:53.398Z,13.07
2022-10-04T21:07:21.212Z,13.05
2022-10-04T21:09:48.021Z,12.99
2022-10-04T21:12:46.789Z,12.98
2022-10-04T21:15:13.167Z,12.93
2022-10-04T21:17:39.573Z,12.88
2022-10-04T21:20:14.483Z,12.88
2022-10-04T21:22:41.155Z,12.82
2022-10-04T21:25:42.946Z,12.79
2022-10-04T21:28:31.314Z,12.76
2022-10-04T21:30:57.951Z,12.72
2022-10-04T21:33:24.325Z,12.68
2022-10-04T21:35:51.994Z,12.63
2022-10-04T21:38:19.029Z,12.62
2022-10-04T21:40:45.438Z,12.60
2022-10-04T21:43:11.879Z,12.58
2022-10-04T21:45:38.401Z,12.57
2022-10-04T21:48:04.885Z,12.56
2022-10-04T21:50:31.331Z,12.50
2022-10-04T21:52:59.648Z,12.48
2022-10-04T21:55:26.054Z,12.46
2022-10-04T21:57:52.473Z,12.46
2022-10-04T22:00:19.088Z,12.47
2022-10-04T22:02:45.559Z,12.45
2022-10-04T22:05:11.977Z,12.47
2022-10-04T22:07:38.407Z,12.48
2022-10-04T22:10:05.267Z,12.50
2022-10-04T22:12:31.682Z,12.49
2022-10-04T22:14:58.128Z,12.48
2022-10-04T22:17:24.480Z,12.43
2022-10-04T22:19:52.882Z,12.40
2022-10-04T22:22:19.723Z,12.35
2022-10-04T22:24:46.158Z,12.32
2022-10-04T22:27:17.404Z,12.29
2022-10-04T22:29:44.425Z,12.28
2022-10-04T22:32:14.985Z,12.28
2022-10-04T22:34:41.384Z,12.28
2022-10-04T22:37:11.846Z,12.29
2022-10-04T22:39:38.875Z,12.25
2022-10-04T22:42:05.541Z,12.24
2022-10-04T22:44:36.890Z,12.17
2022-10-04T22:47:06.577Z,12.10
2022-10-04T22:49:35.792Z,12.06
2022-10-04T22:52:09.756Z,12.03
2022-10-04T22:54:37.977Z,12.02
2022-10-04T22:57:04.371Z,12.01
2022-10-04T22:59:37.604Z,12.00
2022-10-04T23:02:11.121Z,11.98
2022-10-04T23:04:37.591Z,11.95
2022-10-04T23:07:03.987Z,11.93
2022-10-04T23:09:30.394Z,11.90
2022-10-04T23:11:56.758Z,11.89
2022-10-04T23:14:23.186Z,11.85
2022-10-04T23:16:49.917Z,11.83
2022-10-04T23:19:20.863Z,11.84
2022-10-04T23:21:49.703Z,11.83
2022-10-04T23:24:18.668Z,11.84
2022-10-04T23:26:49.541Z,11.83
2022-10-04T23:29:31.960Z,11.79
2022-10-04T23:31:58.502Z,11.76
2022-10-04T23:34:33.214Z,11.76
2022-10-04T23:36:59.858Z,11.75
2022-10-04T23:39:32.507Z,11.77
2022-10-04T23:41:59.687Z,11.75
2022-10-04T23:44:34.552Z,11.71
2022-10-04T23:47:02.450Z,11.66
2022-10-04T23:49:28.922Z,11.60
2022-10-04T23:52:02.691Z,11.55
2022-10-04T23:54:29.193Z,11.49
2022-10-04T23:56:55.606Z,11.45
2022-10-04T23:59:25.251Z,11.42
